Terminal Aerodrome Forecast
Issued by NWS

Home | Current Version | Previous Version | Text Only | Print | Product List | Glossary On
Versions: 1 2 3 4 5 6 7 8 9 10 11 12 13 14 15 16 17 18 19 20 21 22 23 24 25 26 27 28 29 30 31 32 33
000
FTUS42 KJAX 300521
TAFVQQ
TAF
KVQQ 300521Z 3006/0106 VRB03KT P6SM FEW050 SCT250
      TEMPO 3009/3012 5SM BR
     FM301500 27007KT P6SM VCSH SCT040
     FM301800 24010KT P6SM VCTS BKN040CB
     FM010000 22005KT P6SM SCT040 BKN100
     FM010400 VRB03KT P6SM BKN250=

USA.gov is the U.S. government's official web portal to all federal, state and local government web resources and services.